createdAt,value
2023-05-13T00:02:41.540Z,10.69
2023-05-13T00:05:43.106Z,10.67
2023-05-13T00:08:44.487Z,10.81
2023-05-13T00:11:46.123Z,10.91
2023-05-13T00:14:47.517Z,10.88
2023-05-13T00:17:48.928Z,10.92
2023-05-13T00:20:50.399Z,10.78
2023-05-13T00:23:51.818Z,11.00
2023-05-13T00:26:53.404Z,11.04
2023-05-13T00:29:54.806Z,11.03
2023-05-13T00:32:56.217Z,10.95
2023-05-13T00:35:57.633Z,11.03
2023-05-13T00:38:58.999Z,10.98
2023-05-13T00:42:00.360Z,10.97
2023-05-13T00:45:01.721Z,11.02
2023-05-13T00:48:03.192Z,11.02
2023-05-13T00:51:04.575Z,11.06
2023-05-13T00:54:06.054Z,11.12
2023-05-13T00:57:07.464Z,11.30
2023-05-13T01:00:09.269Z,11.29
2023-05-13T01:03:12.019Z,11.18
2023-05-13T01:06:18.246Z,11.05
2023-05-13T01:09:34.792Z,11.12
2023-05-13T01:12:37.077Z,10.97
2023-05-13T01:15:45.870Z,10.74
2023-05-13T01:18:52.600Z,10.72
2023-05-13T01:21:54.613Z,10.66
2023-05-13T01:24:56.032Z,10.69
2023-05-13T01:27:59.862Z,10.68
2023-05-13T01:31:01.707Z,10.57
2023-05-13T01:34:03.357Z,10.48
2023-05-13T01:37:04.769Z,10.37
2023-05-13T01:40:17.148Z,10.46
2023-05-13T01:43:26.043Z,10.50
2023-05-13T01:46:27.530Z,10.49
2023-05-13T01:49:28.953Z,10.46
2023-05-13T01:52:30.313Z,10.39
2023-05-13T01:55:31.660Z,10.35
2023-05-13T01:58:33.060Z,10.36
2023-05-13T02:01:34.683Z,10.27
2023-05-13T02:04:36.150Z,10.26
2023-05-13T02:07:37.547Z,10.21
2023-05-13T02:10:38.910Z,10.28
2023-05-13T02:13:40.264Z,10.27
2023-05-13T02:16:41.716Z,9.99
2023-05-13T02:19:43.094Z,10.03
2023-05-13T02:22:44.454Z,10.02
2023-05-13T02:25:45.806Z,9.92
2023-05-13T02:28:47.357Z,9.81
2023-05-13T02:31:48.799Z,10.03
2023-05-13T02:34:50.172Z,9.85
2023-05-13T02:37:51.520Z,10.03
2023-05-13T02:40:52.861Z,9.95
2023-05-13T02:43:54.233Z,9.81
2023-05-13T02:46:55.703Z,9.90
2023-05-13T02:49:57.094Z,9.98
2023-05-13T02:52:58.477Z,10.04
2023-05-13T02:55:59.860Z,9.85
2023-05-13T02:59:01.255Z,9.88
2023-05-13T03:02:02.591Z,9.85
2023-05-13T03:05:04.051Z,9.81
2023-05-13T03:08:05.467Z,9.74
2023-05-13T03:11:06.815Z,9.71
2023-05-13T03:14:08.160Z,9.79
2023-05-13T03:17:09.506Z,9.85
2023-05-13T03:20:11.183Z,10.01
2023-05-13T03:23:12.538Z,10.00
2023-05-13T03:26:13.912Z,9.78
2023-05-13T03:29:15.429Z,9.75
2023-05-13T03:32:16.847Z,9.74
2023-05-13T03:35:18.223Z,9.71
2023-05-13T03:38:19.575Z,9.79
2023-05-13T03:41:20.961Z,9.80
2023-05-13T03:44:22.324Z,9.84
2023-05-13T03:47:23.973Z,9.39
2023-05-13T03:50:25.470Z,9.48
2023-05-13T03:53:26.910Z,9.56
2023-05-13T03:56:28.410Z,9.65
2023-05-13T03:59:29.783Z,9.72
2023-05-13T04:02:31.215Z,9.65
2023-05-13T04:05:32.596Z,9.45
2023-05-13T04:08:34.430Z,9.58
2023-05-13T04:11:36.027Z,9.63
2023-05-13T04:14:37.573Z,9.60
2023-05-13T04:17:38.998Z,9.58
2023-05-13T04:20:40.409Z,9.55
2023-05-13T04:23:42.217Z,9.59
2023-05-13T04:26:43.568Z,9.72
2023-05-13T04:29:45.027Z,9.79
2023-05-13T04:32:46.438Z,9.87
2023-05-13T04:35:47.812Z,9.93
2023-05-13T04:38:49.304Z,9.97
2023-05-13T04:41:50.787Z,9.93
2023-05-13T04:44:52.136Z,9.97
2023-05-13T04:47:54.876Z,10.05
2023-05-13T04:50:58.336Z,10.00
2023-05-13T04:54:00.361Z,10.07
2023-05-13T04:57:02.460Z,10.18
2023-05-13T05:00:04.258Z,10.19
2023-05-13T05:03:05.835Z,10.32
2023-05-13T05:06:07.221Z,10.34
2023-05-13T05:09:08.640Z,10.26
2023-05-13T05:12:10.037Z,10.44
2023-05-13T05:15:15.609Z,10.42
2023-05-13T05:18:17.195Z,10.45
2023-05-13T05:21:18.709Z,10.39
2023-05-13T05:24:22.519Z,10.44
2023-05-13T05:27:23.913Z,10.44
2023-05-13T05:30:25.293Z,10.52
2023-05-13T05:33:27.133Z,10.68
2023-05-13T05:36:28.946Z,10.63
2023-05-13T05:39:30.370Z,10.88
2023-05-13T05:42:31.731Z,11.13
2023-05-13T05:45:34.680Z,11.13
2023-05-13T05:48:36.092Z,11.22
2023-05-13T05:51:37.457Z,11.11
2023-05-13T05:54:39.180Z,11.46
2023-05-13T05:57:40.567Z,11.45
2023-05-13T06:00:41.943Z,11.39
2023-05-13T06:03:43.445Z,11.73
2023-05-13T06:06:45.018Z,11.78
2023-05-13T06:09:46.426Z,11.83
2023-05-13T06:12:47.901Z,11.81
2023-05-13T06:15:49.256Z,11.90
2023-05-13T06:18:50.695Z,12.08
2023-05-13T06:21:52.175Z,12.15
2023-05-13T06:24:53.510Z,12.37
2023-05-13T06:27:55.118Z,12.52
2023-05-13T06:30:56.682Z,12.56
2023-05-13T06:33:58.132Z,12.81
2023-05-13T06:36:59.574Z,12.76
2023-05-13T06:40:00.990Z,12.54
2023-05-13T06:43:02.335Z,12.67
2023-05-13T06:46:03.741Z,12.83
2023-05-13T06:49:05.089Z,12.95
2023-05-13T06:52:06.552Z,13.02
2023-05-13T06:55:08.781Z,12.94
2023-05-13T06:58:10.182Z,12.86
2023-05-13T07:01:11.607Z,12.77
2023-05-13T07:04:13.026Z,12.98
2023-05-13T07:07:14.405Z,13.08
2023-05-13T07:10:15.774Z,13.00
2023-05-13T07:13:18.087Z,13.02
2023-05-13T07:16:19.456Z,12.91
2023-05-13T07:19:20.809Z,12.94
2023-05-13T07:22:22.170Z,12.93
2023-05-13T07:25:23.536Z,12.82
2023-05-13T07:28:24.943Z,12.77
2023-05-13T07:31:26.548Z,12.75
2023-05-13T07:34:28.081Z,12.77
2023-05-13T07:37:29.535Z,12.73
2023-05-13T07:40:30.943Z,12.71
2023-05-13T07:43:34.979Z,12.69
2023-05-13T07:46:36.441Z,12.56
2023-05-13T07:49:37.813Z,12.53
2023-05-13T07:52:39.236Z,12.82
2023-05-13T07:55:40.910Z,12.92
2023-05-13T07:58:42.273Z,13.16
2023-05-13T08:01:43.686Z,13.07
2023-05-13T08:04:45.143Z,13.11
2023-05-13T08:07:46.530Z,13.24
2023-05-13T08:10:47.910Z,13.06
2023-05-13T08:13:49.306Z,13.19
2023-05-13T08:16:50.727Z,13.19
2023-05-13T08:19:52.155Z,13.39
2023-05-13T08:22:53.495Z,13.77
2023-05-13T08:25:54.867Z,13.93
2023-05-13T08:28:57.194Z,13.87
2023-05-13T08:31:58.681Z,13.86
2023-05-13T08:35:01.247Z,13.90
2023-05-13T08:38:05.327Z,13.92
2023-05-13T08:41:06.853Z,14.12
2023-05-13T08:44:08.215Z,14.18
2023-05-13T08:47:36.958Z,13.98
2023-05-13T08:50:38.635Z,14.25
2023-05-13T08:53:40.817Z,14.20
2023-05-13T08:56:42.183Z,14.04
2023-05-13T08:59:43.603Z,14.28
2023-05-13T09:02:45.047Z,14.38
2023-05-13T09:05:46.481Z,14.52
2023-05-13T09:08:48.229Z,14.60
2023-05-13T09:11:49.654Z,14.60
2023-05-13T09:14:51.032Z,14.39
2023-05-13T09:17:56.344Z,14.72
2023-05-13T09:20:57.884Z,14.77
2023-05-13T09:24:05.887Z,14.67
2023-05-13T09:27:08.240Z,14.75
2023-05-13T09:30:10.034Z,14.73
2023-05-13T09:33:12.086Z,14.60
2023-05-13T09:36:13.502Z,14.67
2023-05-13T09:39:15.399Z,14.69
2023-05-13T09:42:17.347Z,14.53
2023-05-13T09:45:18.847Z,14.48
2023-05-13T09:48:21.198Z,14.63
2023-05-13T09:51:27.013Z,14.53
2023-05-13T09:54:34.003Z,14.87
2023-05-13T09:57:35.472Z,14.94
2023-05-13T10:00:39.098Z,15.14
2023-05-13T10:03:40.815Z,15.22
2023-05-13T10:06:42.238Z,15.42
2023-05-13T10:09:43.584Z,15.51
2023-05-13T10:12:45.003Z,15.36
2023-05-13T10:15:50.304Z,15.55
2023-05-13T10:18:51.851Z,15.18
2023-05-13T10:21:54.232Z,15.21
2023-05-13T10:24:56.345Z,15.37
2023-05-13T10:27:57.759Z,15.21
2023-05-13T10:30:59.160Z,15.09
2023-05-13T10:34:00.816Z,15.24
2023-05-13T10:37:08.239Z,15.21
2023-05-13T10:40:28.454Z,15.08
2023-05-13T10:43:30.266Z,15.07
2023-05-13T10:46:32.268Z,15.15
2023-05-13T10:49:34.826Z,15.01
2023-05-13T10:53:04.781Z,14.90
2023-05-13T10:56:09.060Z,14.98
2023-05-13T10:59:10.475Z,14.80
2023-05-13T11:02:21.916Z,15.03
2023-05-13T11:05:23.361Z,15.03
2023-05-13T11:08:37.829Z,14.97
2023-05-13T11:11:39.340Z,15.08
2023-05-13T11:14:41.108Z,15.05
2023-05-13T11:17:43.708Z,15.14
2023-05-13T11:20:52.165Z,15.14
2023-05-13T11:24:04.148Z,14.95
2023-05-13T11:27:17.726Z,15.18
2023-05-13T11:30:23.093Z,15.25
2023-05-13T11:33:24.626Z,15.40
2023-05-13T11:36:29.472Z,15.37
2023-05-13T11:39:30.997Z,15.48
2023-05-13T11:42:32.339Z,15.56
2023-05-13T11:45:35.655Z,15.38
2023-05-13T11:48:37.072Z,15.76
2023-05-13T11:51:38.452Z,15.87
2023-05-13T11:54:56.763Z,16.06
2023-05-13T11:57:58.662Z,16.33
2023-05-13T12:01:00.168Z,16.39
2023-05-13T12:04:01.945Z,16.36
2023-05-13T12:07:03.315Z,16.57
2023-05-13T12:10:05.061Z,16.51
2023-05-13T12:13:06.433Z,16.31
2023-05-13T12:16:07.797Z,16.35
2023-05-13T12:19:09.241Z,16.31
2023-05-13T12:22:10.672Z,16.43
2023-05-13T12:25:30.516Z,16.41
2023-05-13T12:28:32.087Z,16.61
2023-05-13T12:31:33.529Z,16.83
2023-05-13T12:34:35.055Z,16.84
2023-05-13T12:37:36.433Z,16.42
2023-05-13T12:40:37.811Z,16.07
2023-05-13T12:43:40.486Z,16.10
2023-05-13T12:46:51.554Z,16.03
2023-05-13T12:49:53.611Z,15.84
2023-05-13T12:52:55.081Z,15.83
2023-05-13T12:55:56.531Z,15.83
2023-05-13T12:58:57.961Z,15.73
2023-05-13T13:01:59.291Z,15.82
2023-05-13T13:05:00.992Z,15.68
2023-05-13T13:08:05.106Z,15.57
2023-05-13T13:11:06.487Z,15.65
2023-05-13T13:14:08.398Z,15.22
2023-05-13T13:17:09.803Z,15.24
2023-05-13T13:20:12.364Z,15.51
2023-05-13T13:23:13.764Z,15.20
2023-05-13T13:26:15.111Z,14.99
2023-05-13T13:29:16.494Z,15.26
2023-05-13T13:32:18.006Z,15.32
2023-05-13T13:35:19.609Z,15.27
2023-05-13T13:38:21.155Z,15.25
2023-05-13T13:41:25.484Z,15.07
2023-05-13T13:44:28.497Z,15.00
2023-05-13T13:47:30.091Z,15.05
2023-05-13T13:50:31.493Z,15.09
2023-05-13T13:53:32.871Z,15.13
2023-05-13T13:56:37.428Z,14.97
2023-05-13T13:59:38.808Z,14.94
2023-05-13T14:02:40.778Z,14.95
2023-05-13T14:05:42.256Z,15.01
2023-05-13T14:08:43.614Z,14.94
2023-05-13T14:11:44.935Z,14.93
2023-05-13T14:14:46.273Z,14.90
2023-05-13T14:17:47.692Z,14.81
2023-05-13T14:20:50.338Z,14.77
2023-05-13T14:23:52.901Z,14.56
2023-05-13T14:26:54.322Z,14.75
2023-05-13T14:29:55.716Z,14.86
2023-05-13T14:32:57.187Z,14.70
2023-05-13T14:35:58.691Z,14.74
2023-05-13T14:39:00.048Z,14.67
2023-05-13T14:42:01.404Z,14.81
2023-05-13T14:45:02.801Z,14.68
2023-05-13T14:48:04.559Z,14.78
2023-05-13T14:51:05.954Z,14.82
2023-05-13T14:54:07.317Z,14.59
2023-05-13T14:57:08.747Z,14.72
2023-05-13T15:00:10.486Z,14.62
2023-05-13T15:03:12.062Z,14.66
2023-05-13T15:06:13.544Z,14.69
2023-05-13T15:09:14.977Z,14.59
2023-05-13T15:12:16.338Z,14.73
2023-05-13T15:15:17.668Z,14.72
2023-05-13T15:18:19.005Z,14.88
2023-05-13T15:21:20.340Z,14.77
2023-05-13T15:24:21.674Z,14.78
2023-05-13T15:27:23.039Z,14.92
2023-05-13T15:30:24.630Z,14.84
2023-05-13T15:33:26.786Z,14.74
2023-05-13T15:36:28.171Z,14.73
2023-05-13T15:39:29.528Z,14.67
2023-05-13T15:42:30.961Z,14.74
2023-05-13T15:45:32.348Z,14.54
2023-05-13T15:48:33.839Z,14.56
2023-05-13T15:51:35.712Z,14.47
2023-05-13T15:54:37.033Z,14.53
2023-05-13T15:57:39.863Z,14.39
2023-05-13T16:00:41.467Z,14.31
2023-05-13T16:03:42.904Z,14.32
2023-05-13T16:06:44.273Z,14.40
2023-05-13T16:09:45.635Z,14.48
2023-05-13T16:12:46.965Z,14.38
2023-05-13T16:15:48.336Z,14.47
2023-05-13T16:18:49.722Z,14.43
2023-05-13T16:21:51.115Z,14.38
2023-05-13T16:24:52.688Z,14.39
2023-05-13T16:27:55.028Z,14.32
2023-05-13T16:30:58.554Z,14.33
2023-05-13T16:34:00.163Z,14.27
2023-05-13T16:37:02.209Z,14.54
2023-05-13T16:40:03.758Z,14.71
2023-05-13T16:43:05.098Z,14.74
2023-05-13T16:46:06.455Z,14.95
2023-05-13T16:49:07.800Z,15.23
2023-05-13T16:52:09.196Z,15.39
2023-05-13T16:55:10.557Z,15.42
2023-05-13T16:58:11.902Z,15.14
2023-05-13T17:01:15.753Z,14.93
2023-05-13T17:04:17.185Z,14.75
2023-05-13T17:07:18.769Z,14.70
2023-05-13T17:10:20.311Z,14.78
2023-05-13T17:13:22.159Z,14.76
2023-05-13T17:16:23.585Z,14.73
2023-05-13T17:19:24.982Z,14.73
2023-05-13T17:22:26.402Z,14.68
2023-05-13T17:25:27.743Z,14.63
2023-05-13T17:28:29.155Z,14.60
2023-05-13T17:31:30.702Z,14.56
2023-05-13T17:34:32.116Z,14.38
2023-05-13T17:37:33.492Z,14.48
2023-05-13T17:40:35.038Z,14.59
2023-05-13T17:43:36.565Z,14.49
2023-05-13T17:46:37.930Z,14.52
2023-05-13T17:49:39.278Z,14.52
2023-05-13T17:52:41.500Z,14.50
2023-05-13T17:55:43.020Z,14.48
2023-05-13T17:58:44.392Z,14.52
2023-05-13T18:01:45.861Z,14.39
2023-05-13T18:04:47.479Z,14.43
2023-05-13T18:07:48.889Z,14.37
2023-05-13T18:10:50.467Z,14.41
2023-05-13T18:13:52.203Z,14.37
2023-05-13T18:16:53.577Z,14.23
2023-05-13T18:19:55.041Z,14.26
2023-05-13T18:22:56.498Z,14.13
2023-05-13T18:25:57.970Z,13.99
2023-05-13T18:28:59.351Z,13.92
2023-05-13T18:32:00.953Z,13.88
2023-05-13T18:35:02.708Z,13.82
2023-05-13T18:38:04.103Z,13.79
2023-05-13T18:41:06.123Z,13.82
2023-05-13T18:44:07.985Z,13.70
2023-05-13T18:47:09.495Z,13.59
2023-05-13T18:50:10.978Z,13.59
2023-05-13T18:53:12.393Z,13.56
2023-05-13T18:56:13.718Z,13.42
2023-05-13T18:59:15.172Z,13.32
2023-05-13T19:02:16.677Z,13.29
2023-05-13T19:05:20.432Z,13.24
2023-05-13T19:08:22.544Z,13.08
2023-05-13T19:11:23.852Z,12.94
2023-05-13T19:14:25.347Z,12.80
2023-05-13T19:17:26.995Z,12.79
2023-05-13T19:20:28.903Z,12.70
2023-05-13T19:23:30.558Z,12.52
2023-05-13T19:26:31.915Z,12.42
2023-05-13T19:29:35.403Z,12.28
2023-05-13T19:32:36.766Z,12.13
2023-05-13T19:35:38.187Z,11.94
2023-05-13T19:38:39.532Z,11.78
2023-05-13T19:41:41.084Z,11.70
2023-05-13T19:44:42.411Z,11.63
2023-05-13T19:47:43.779Z,11.61
2023-05-13T19:50:45.160Z,11.52
2023-05-13T19:53:46.608Z,11.50
2023-05-13T19:56:48.028Z,11.39
2023-05-13T19:59:49.361Z,11.29
2023-05-13T20:02:50.906Z,11.18
2023-05-13T20:05:53.856Z,11.24
2023-05-13T20:08:55.215Z,11.18
2023-05-13T20:11:57.938Z,10.97
2023-05-13T20:15:00.463Z,10.90
2023-05-13T20:18:01.910Z,10.90
2023-05-13T20:21:03.603Z,10.75
2023-05-13T20:24:04.958Z,10.89
2023-05-13T20:27:06.329Z,10.91
2023-05-13T20:30:08.520Z,10.98
2023-05-13T20:33:09.929Z,11.06
2023-05-13T20:36:11.326Z,10.92
2023-05-13T20:39:12.687Z,11.03
2023-05-13T20:42:14.103Z,11.08
2023-05-13T20:45:15.854Z,10.89
2023-05-13T20:48:17.223Z,10.79
2023-05-13T20:51:18.610Z,10.78
2023-05-13T20:54:20.102Z,10.83
2023-05-13T20:57:21.437Z,10.80
2023-05-13T21:00:23.060Z,10.69
2023-05-13T21:03:24.634Z,10.68
2023-05-13T21:06:26.116Z,10.70
2023-05-13T21:09:27.450Z,10.77
2023-05-13T21:12:28.831Z,10.72
2023-05-13T21:15:30.246Z,10.57
2023-05-13T21:18:31.791Z,10.53
2023-05-13T21:21:33.225Z,10.56
2023-05-13T21:24:34.574Z,10.59
2023-05-13T21:27:35.961Z,10.54
2023-05-13T21:30:37.288Z,10.40
2023-05-13T21:33:38.662Z,10.29
2023-05-13T21:36:40.001Z,10.35
2023-05-13T21:39:41.399Z,10.24
2023-05-13T21:42:42.758Z,10.17
2023-05-13T21:45:45.183Z,10.12
2023-05-13T21:48:46.859Z,10.08
2023-05-13T21:51:48.328Z,9.98
2023-05-13T21:54:49.800Z,9.91
2023-05-13T21:57:51.153Z,10.01
2023-05-13T22:00:52.911Z,9.88
2023-05-13T22:03:54.328Z,9.61
2023-05-13T22:06:55.684Z,9.52
2023-05-13T22:09:57.520Z,9.62
2023-05-13T22:12:58.879Z,9.52
2023-05-13T22:16:00.297Z,9.57
2023-05-13T22:19:04.216Z,9.54
2023-05-13T22:22:05.823Z,9.49
2023-05-13T22:25:07.325Z,9.59
2023-05-13T22:28:08.678Z,9.57
2023-05-13T22:31:10.020Z,9.60
2023-05-13T22:34:11.648Z,9.53
2023-05-13T22:37:12.987Z,9.62
2023-05-13T22:40:14.541Z,9.52
2023-05-13T22:43:15.884Z,9.39
2023-05-13T22:46:17.259Z,9.15
2023-05-13T22:49:18.657Z,9.18
2023-05-13T22:52:20.173Z,9.09
2023-05-13T22:55:21.569Z,9.17
2023-05-13T22:58:22.954Z,9.05
2023-05-13T23:01:24.335Z,8.95
2023-05-13T23:04:26.034Z,8.82
2023-05-13T23:07:27.393Z,8.68
2023-05-13T23:10:29.318Z,8.75
2023-05-13T23:13:30.795Z,8.73
2023-05-13T23:16:32.216Z,8.71
2023-05-13T23:19:33.993Z,8.60
2023-05-13T23:22:35.351Z,8.50
2023-05-13T23:25:36.669Z,8.44
2023-05-13T23:28:38.043Z,8.33
2023-05-13T23:31:40.405Z,8.42
2023-05-13T23:34:41.909Z,8.38
2023-05-13T23:37:45.437Z,8.39
2023-05-13T23:40:46.794Z,8.43
2023-05-13T23:43:48.456Z,8.42
2023-05-13T23:46:49.921Z,8.36
2023-05-13T23:49:51.386Z,8.28
2023-05-13T23:52:52.752Z,8.18
2023-05-13T23:55:54.093Z,8.23
2023-05-13T23:58:55.450Z,8.24
